createdAt,value
2022-08-27T00:00:35.585Z,17.85
2022-08-27T00:03:23.269Z,20.02
2022-08-27T00:06:12.431Z,23.92
2022-08-27T00:09:00.740Z,21.10
2022-08-27T00:11:48.313Z,17.30
2022-08-27T00:14:36.823Z,15.35
2022-08-27T00:17:24.581Z,18.98
2022-08-27T00:20:13.615Z,16.97
2022-08-27T00:23:01.272Z,19.52
2022-08-27T00:25:48.613Z,18.80
2022-08-27T00:28:36.899Z,21.27
2022-08-27T00:31:27.547Z,22.27
2022-08-27T00:34:13.299Z,15.50
2022-08-27T00:37:00.659Z,17.85
2022-08-27T00:39:48.285Z,15.53
2022-08-27T00:42:35.951Z,19.25
2022-08-27T00:45:25.501Z,15.68
2022-08-27T00:48:15.963Z,19.80
2022-08-27T00:51:05.355Z,20.75
2022-08-27T00:53:54.469Z,18.15
2022-08-27T00:56:50.649Z,16.80
2022-08-27T00:59:35.493Z,17.50
2022-08-27T01:02:24.826Z,16.27
2022-08-27T01:05:15.267Z,16.97
2022-08-27T01:08:05.901Z,14.05
2022-08-27T01:10:54.959Z,17.70
2022-08-27T01:13:53.465Z,19.50
2022-08-27T01:16:37.253Z,15.28
2022-08-27T01:19:31.094Z,21.33
2022-08-27T01:22:27.520Z,17.07
2022-08-27T01:25:18.223Z,22.98
2022-08-27T01:28:06.567Z,17.02
2022-08-27T01:30:53.880Z,19.92
2022-08-27T01:33:41.554Z,24.60
2022-08-27T01:36:29.814Z,16.82
2022-08-27T01:39:17.297Z,17.12
2022-08-27T01:42:11.423Z,16.02
2022-08-27T01:45:02.050Z,17.27
2022-08-27T01:47:51.147Z,17.80
2022-08-27T01:50:40.666Z,20.95
2022-08-27T01:53:28.834Z,20.08
2022-08-27T01:56:16.357Z,23.90
2022-08-27T01:59:04.040Z,17.02
2022-08-27T02:01:52.064Z,27.32
2022-08-27T02:04:40.318Z,21.25
2022-08-27T02:07:28.137Z,17.73
2022-08-27T02:10:19.454Z,22.05
2022-08-27T02:13:08.513Z,23.25
2022-08-27T02:15:56.363Z,19.05
2022-08-27T02:18:43.660Z,19.27
2022-08-27T02:21:31.131Z,17.77
2022-08-27T02:24:18.426Z,23.10
2022-08-27T02:27:06.243Z,18.87
2022-08-27T02:29:55.383Z,21.07
2022-08-27T02:32:43.343Z,24.00
2022-08-27T02:35:32.756Z,26.82
2022-08-27T02:38:20.769Z,26.30
2022-08-27T02:41:08.052Z,22.50
2022-08-27T02:43:55.779Z,21.35
2022-08-27T02:46:43.798Z,21.42
2022-08-27T02:49:31.591Z,18.57
2022-08-27T02:52:24.789Z,20.95
2022-08-27T02:55:09.587Z,20.65
2022-08-27T02:57:57.761Z,22.82
2022-08-27T03:00:45.831Z,22.45
2022-08-27T03:03:33.945Z,20.90
2022-08-27T03:06:21.559Z,22.32
2022-08-27T03:09:10.616Z,24.18
2022-08-27T03:11:58.350Z,26.80
2022-08-27T03:14:45.894Z,20.55
2022-08-27T03:17:51.016Z,25.17
2022-08-27T03:20:44.468Z,23.18
2022-08-27T03:23:35.777Z,18.77
2022-08-27T03:26:23.653Z,20.68
2022-08-27T03:29:10.872Z,16.62
2022-08-27T03:31:58.189Z,19.32
2022-08-27T03:34:45.834Z,17.40
2022-08-27T03:37:33.489Z,20.40
2022-08-27T03:40:20.953Z,65.85
2022-08-27T03:43:09.909Z,68.92
2022-08-27T03:46:01.523Z,24.90
2022-08-27T03:48:46.456Z,18.48
2022-08-27T03:51:33.992Z,23.30
2022-08-27T03:54:21.749Z,22.20
2022-08-27T03:57:10.540Z,18.12
2022-08-27T03:59:58.187Z,17.48
2022-08-27T04:02:46.161Z,19.17
2022-08-27T04:05:34.841Z,17.48
2022-08-27T04:08:23.120Z,19.70
2022-08-27T04:11:10.788Z,18.87
2022-08-27T04:13:58.032Z,17.82
2022-08-27T04:16:45.655Z,16.75
2022-08-27T04:19:34.064Z,25.17
2022-08-27T04:22:21.793Z,21.80
2022-08-27T04:25:10.429Z,17.45
2022-08-27T04:27:59.689Z,18.90
2022-08-27T04:30:47.947Z,24.75
2022-08-27T04:33:35.535Z,22.73
2022-08-27T04:36:22.581Z,19.70
2022-08-27T04:39:10.071Z,17.80
2022-08-27T04:41:59.468Z,16.90
2022-08-27T04:44:48.427Z,18.40
2022-08-27T04:47:36.041Z,16.07
2022-08-27T04:50:24.320Z,16.05
2022-08-27T04:53:12.956Z,19.70
2022-08-27T04:55:59.983Z,17.92
2022-08-27T04:58:47.177Z,16.97
2022-08-27T05:01:34.666Z,18.80
2022-08-27T05:04:21.997Z,17.80
2022-08-27T05:07:11.652Z,15.40
2022-08-27T05:09:59.293Z,18.05
2022-08-27T05:12:46.761Z,17.55
2022-08-27T05:15:33.807Z,14.55
2022-08-27T05:18:21.211Z,18.85
2022-08-27T05:21:09.269Z,14.98
2022-08-27T05:24:00.695Z,16.80
2022-08-27T05:26:48.534Z,20.62
2022-08-27T05:29:35.869Z,18.60
2022-08-27T05:32:23.936Z,18.07
2022-08-27T05:35:15.218Z,16.10
2022-08-27T05:38:03.553Z,16.57
2022-08-27T05:40:50.843Z,19.17
2022-08-27T05:43:40.221Z,18.10
2022-08-27T05:46:29.231Z,18.25
2022-08-27T05:49:16.335Z,20.00
2022-08-27T05:52:04.015Z,17.55
2022-08-27T05:54:51.522Z,16.40
2022-08-27T05:57:39.359Z,17.42
2022-08-27T06:00:44.592Z,19.17
2022-08-27T06:03:35.422Z,22.58
2022-08-27T06:06:23.576Z,19.60
2022-08-27T06:09:13.199Z,20.30
2022-08-27T06:12:02.460Z,17.25
2022-08-27T06:14:49.429Z,21.45
2022-08-27T06:17:36.696Z,19.37
2022-08-27T06:20:24.531Z,18.27
2022-08-27T06:23:12.346Z,18.42
2022-08-27T06:26:00.237Z,14.63
2022-08-27T06:28:47.879Z,18.40
2022-08-27T06:31:35.685Z,19.12
2022-08-27T06:34:23.362Z,18.37
2022-08-27T06:37:10.921Z,16.82
2022-08-27T06:39:58.338Z,17.05
2022-08-27T06:42:45.889Z,21.37
2022-08-27T06:45:33.411Z,18.75
2022-08-27T06:48:21.388Z,20.92
2022-08-27T06:51:12.309Z,16.82
2022-08-27T06:54:02.272Z,17.25
2022-08-27T06:56:52.568Z,14.87
2022-08-27T06:59:41.232Z,16.67
2022-08-27T07:02:28.584Z,14.00
2022-08-27T07:05:15.921Z,10.95
2022-08-27T07:08:04.092Z,15.10
2022-08-27T07:10:53.157Z,15.75
2022-08-27T07:13:41.338Z,15.38
2022-08-27T07:16:30.689Z,12.78
2022-08-27T07:19:17.880Z,12.53
2022-08-27T07:22:06.264Z,12.63
2022-08-27T07:24:53.894Z,12.78
2022-08-27T07:27:42.042Z,16.10
2022-08-27T07:30:29.641Z,14.10
2022-08-27T07:33:17.197Z,13.05
2022-08-27T07:36:06.281Z,18.27
2022-08-27T07:38:59.196Z,13.08
2022-08-27T07:42:00.999Z,12.20
2022-08-27T07:44:49.825Z,11.03
2022-08-27T07:47:37.320Z,9.30
2022-08-27T07:50:24.865Z,9.10
2022-08-27T07:53:12.196Z,10.53
2022-08-27T07:56:08.463Z,9.75
2022-08-27T07:58:56.141Z,7.62
2022-08-27T08:01:43.588Z,8.40
2022-08-27T08:04:33.625Z,10.15
2022-08-27T08:07:21.753Z,8.95
2022-08-27T08:10:11.637Z,8.73
2022-08-27T08:12:59.163Z,6.97
2022-08-27T08:15:47.662Z,11.78
2022-08-27T08:18:36.207Z,9.90
2022-08-27T08:21:24.057Z,9.63
2022-08-27T08:24:11.559Z,9.55
2022-08-27T08:27:00.411Z,7.40
2022-08-27T08:29:49.320Z,11.08
2022-08-27T08:32:36.963Z,8.95
2022-08-27T08:35:24.333Z,8.30
2022-08-27T08:38:11.895Z,7.55
2022-08-27T08:40:59.899Z,14.55
2022-08-27T08:43:49.132Z,9.85
2022-08-27T08:46:39.719Z,9.90
2022-08-27T08:49:57.060Z,10.75
2022-08-27T08:52:56.677Z,14.58
2022-08-27T08:55:56.087Z,10.35
2022-08-27T08:58:55.404Z,7.60
2022-08-27T09:01:44.540Z,8.08
2022-08-27T09:04:31.991Z,13.08
2022-08-27T09:07:22.953Z,9.03
2022-08-27T09:10:25.451Z,8.08
2022-08-27T09:13:27.893Z,8.45
2022-08-27T09:16:15.523Z,6.67
2022-08-27T09:19:06.117Z,7.42
2022-08-27T09:22:05.984Z,7.78
2022-08-27T09:25:20.916Z,8.38
2022-08-27T09:28:14.443Z,10.85
2022-08-27T09:31:04.970Z,8.13
2022-08-27T09:33:55.889Z,18.52
2022-08-27T09:37:11.744Z,8.33
2022-08-27T09:40:07.218Z,8.33
2022-08-27T09:42:59.809Z,8.40
2022-08-27T09:46:00.172Z,6.70
2022-08-27T09:48:47.534Z,6.95
2022-08-27T09:51:39.603Z,7.97
2022-08-27T09:54:33.092Z,7.70
2022-08-27T09:57:24.414Z,7.62
2022-08-27T10:00:19.085Z,10.40
2022-08-27T10:03:08.287Z,9.08
2022-08-27T10:05:55.317Z,8.18
2022-08-27T10:08:51.749Z,8.18
2022-08-27T10:11:42.421Z,7.67
2022-08-27T10:14:44.015Z,10.13
2022-08-27T10:17:37.085Z,7.75
2022-08-27T10:20:30.843Z,7.33
2022-08-27T10:23:33.993Z,7.35
2022-08-27T10:26:33.863Z,8.00
2022-08-27T10:29:34.949Z,7.53
2022-08-27T10:32:52.874Z,5.83
2022-08-27T10:35:54.585Z,8.75
2022-08-27T10:38:47.273Z,9.08
2022-08-27T10:41:40.586Z,7.35
2022-08-27T10:44:46.215Z,8.08
2022-08-27T10:47:59.259Z,6.85
2022-08-27T10:51:02.558Z,7.45
2022-08-27T10:54:05.764Z,9.40
2022-08-27T10:57:21.726Z,8.48
2022-08-27T10:59:54.176Z,6.83
2022-08-27T11:02:45.085Z,14.83
2022-08-27T11:05:36.901Z,13.72
2022-08-27T11:08:33.687Z,7.28
2022-08-27T11:14:25.793Z,8.20
2022-08-27T11:17:32.843Z,6.67
2022-08-27T11:20:25.912Z,11.10
2022-08-27T11:23:19.268Z,8.88
2022-08-27T11:26:07.492Z,6.40
2022-08-27T11:29:03.729Z,6.33
2022-08-27T11:31:54.061Z,7.90
2022-08-27T11:34:50.340Z,10.53
2022-08-27T11:37:45.178Z,6.37
2022-08-27T11:40:41.395Z,8.13
2022-08-27T11:43:31.224Z,10.03
2022-08-27T11:46:26.580Z,8.13
2022-08-27T11:49:26.399Z,10.45
2022-08-27T11:52:16.022Z,7.10
2022-08-27T11:55:15.670Z,6.30
2022-08-27T11:58:24.368Z,10.93
2022-08-27T12:01:27.193Z,7.97
2022-08-27T12:04:35.827Z,8.43
2022-08-27T12:07:29.552Z,7.03
2022-08-27T12:10:26.076Z,6.83
2022-08-27T12:13:25.172Z,7.87
2022-08-27T12:16:18.582Z,14.75
2022-08-27T12:19:08.867Z,9.78
2022-08-27T12:22:39.507Z,9.38
2022-08-27T12:25:26.066Z,7.00
2022-08-27T12:28:16.656Z,8.35
2022-08-27T12:31:05.847Z,8.40
2022-08-27T12:33:54.913Z,7.50
2022-08-27T12:36:42.449Z,6.92
2022-08-27T12:39:32.830Z,5.42
2022-08-27T12:42:22.755Z,5.42
2022-08-27T12:45:11.708Z,6.95
2022-08-27T12:48:00.527Z,9.90
2022-08-27T12:50:53.657Z,10.50
2022-08-27T12:53:44.447Z,6.33
2022-08-27T12:56:46.760Z,7.33
2022-08-27T13:00:07.699Z,6.10
2022-08-27T13:03:07.513Z,6.45
2022-08-27T13:05:56.177Z,6.62
2022-08-27T13:08:44.264Z,5.40
2022-08-27T13:11:34.759Z,6.65
2022-08-27T13:14:23.029Z,7.53
2022-08-27T13:17:13.628Z,7.53
2022-08-27T13:20:02.232Z,8.78
2022-08-27T13:22:51.115Z,7.28
2022-08-27T13:25:38.541Z,6.15
2022-08-27T13:28:29.554Z,7.33
2022-08-27T13:31:19.351Z,6.60
2022-08-27T13:34:07.774Z,9.75
2022-08-27T13:37:02.396Z,6.67
2022-08-27T13:39:52.919Z,5.92
2022-08-27T13:42:45.074Z,6.28
2022-08-27T13:45:32.524Z,6.92
2022-08-27T13:48:24.367Z,6.10
2022-08-27T13:51:11.872Z,11.50
2022-08-27T13:54:15.676Z,9.60
2022-08-27T13:57:07.853Z,7.40
2022-08-27T13:59:55.262Z,6.08
2022-08-27T14:02:55.388Z,6.80
2022-08-27T14:05:35.591Z,6.70
2022-08-27T14:08:24.496Z,5.97
2022-08-27T14:11:12.224Z,9.05
2022-08-27T14:13:59.996Z,6.33
2022-08-27T14:16:50.424Z,8.05
2022-08-27T14:19:39.386Z,6.67
2022-08-27T14:22:26.977Z,6.37
2022-08-27T14:25:15.397Z,7.83
2022-08-27T14:28:02.792Z,8.98
2022-08-27T14:30:53.602Z,5.97
2022-08-27T14:33:39.788Z,5.87
2022-08-27T14:36:30.221Z,8.13
2022-08-27T14:39:17.869Z,8.35
2022-08-27T14:42:07.209Z,8.70
2022-08-27T14:44:55.752Z,7.40
2022-08-27T14:47:44.281Z,8.60
2022-08-27T14:50:31.589Z,6.58
2022-08-27T14:53:19.764Z,7.53
2022-08-27T14:56:07.568Z,5.03
2022-08-27T14:58:54.898Z,7.12
2022-08-27T15:01:42.390Z,6.00
2022-08-27T15:04:32.116Z,5.28
2022-08-27T15:07:19.876Z,6.85
2022-08-27T15:10:09.399Z,6.97
2022-08-27T15:12:57.877Z,6.92
2022-08-27T15:15:45.678Z,8.00
2022-08-27T15:18:32.926Z,6.03
2022-08-27T15:21:20.279Z,8.90
2022-08-27T15:24:29.187Z,5.97
2022-08-27T15:27:16.734Z,7.17
2022-08-27T15:30:06.166Z,5.08
2022-08-27T15:32:53.698Z,6.47
2022-08-27T15:35:41.229Z,5.50
2022-08-27T15:38:28.817Z,6.45
2022-08-27T15:41:16.230Z,5.72
2022-08-27T15:44:04.171Z,8.45
2022-08-27T15:46:51.715Z,5.40
2022-08-27T15:49:40.868Z,6.33
2022-08-27T15:52:40.404Z,9.13
2022-08-27T15:55:23.582Z,4.75
2022-08-27T15:58:12.381Z,6.28
2022-08-27T16:01:11.789Z,6.62
2022-08-27T16:04:00.281Z,6.92
2022-08-27T16:06:49.037Z,5.60
2022-08-27T16:09:36.631Z,5.78
2022-08-27T16:12:26.931Z,6.87
2022-08-27T16:15:13.394Z,6.35
2022-08-27T16:18:03.415Z,9.68
2022-08-27T16:20:51.084Z,3.95
2022-08-27T16:23:38.495Z,8.75
2022-08-27T16:26:25.876Z,8.95
2022-08-27T16:29:13.205Z,5.20
2022-08-27T16:32:01.534Z,5.70
2022-08-27T16:34:55.448Z,5.92
2022-08-27T16:37:38.209Z,5.87
2022-08-27T16:40:26.660Z,6.58
2022-08-27T16:43:18.818Z,7.28
2022-08-27T16:46:06.603Z,5.05
2022-08-27T16:49:11.949Z,6.45
2022-08-27T16:52:00.084Z,9.85
2022-08-27T16:54:47.450Z,4.72
2022-08-27T16:57:35.254Z,4.50
2022-08-27T17:00:23.122Z,7.08
2022-08-27T17:03:10.715Z,4.62
2022-08-27T17:05:58.873Z,4.25
2022-08-27T17:08:48.065Z,4.87
2022-08-27T17:11:36.453Z,4.03
2022-08-27T17:14:24.087Z,3.22
2022-08-27T17:17:13.006Z,5.30
2022-08-27T17:20:01.035Z,4.10
2022-08-27T17:22:48.928Z,4.37
2022-08-27T17:25:36.512Z,5.65
2022-08-27T17:28:23.632Z,5.67
2022-08-27T17:31:13.631Z,4.20
2022-08-27T17:34:02.244Z,4.45
2022-08-27T17:36:50.295Z,3.55
2022-08-27T17:39:37.669Z,6.10
2022-08-27T17:42:26.144Z,4.72
2022-08-27T17:45:13.649Z,8.13
2022-08-27T17:48:01.202Z,6.97
2022-08-27T17:50:50.051Z,6.47
2022-08-27T17:53:43.083Z,13.25
2022-08-27T17:56:30.845Z,11.88
2022-08-27T17:59:19.062Z,5.42
2022-08-27T18:02:06.385Z,8.30
2022-08-27T18:04:53.991Z,6.40
2022-08-27T18:07:43.085Z,10.58
2022-08-27T18:10:30.868Z,9.80
2022-08-27T18:13:19.651Z,11.12
2022-08-27T18:16:07.465Z,6.62
2022-08-27T18:18:54.917Z,9.05
2022-08-27T18:21:46.471Z,6.90
2022-08-27T18:24:31.144Z,6.17
2022-08-27T18:27:26.862Z,9.08
2022-08-27T18:30:16.182Z,6.10
2022-08-27T18:33:03.678Z,11.68
2022-08-27T18:35:50.723Z,8.90
2022-08-27T18:38:39.224Z,6.80
2022-08-27T18:41:28.523Z,5.47
2022-08-27T18:44:17.757Z,7.85
2022-08-27T18:47:05.842Z,5.17
2022-08-27T18:49:53.288Z,7.58
2022-08-27T18:52:42.855Z,11.73
2022-08-27T18:55:30.539Z,8.95
2022-08-27T18:58:19.769Z,6.25
2022-08-27T19:01:15.951Z,7.53
2022-08-27T19:04:05.240Z,7.35
2022-08-27T19:06:54.059Z,9.25
2022-08-27T19:09:41.505Z,6.90
2022-08-27T19:12:28.943Z,9.33
2022-08-27T19:15:16.664Z,3.92
2022-08-27T19:18:04.240Z,10.05
2022-08-27T19:20:52.296Z,6.95
2022-08-27T19:23:40.576Z,6.05
2022-08-27T19:26:28.283Z,9.83
2022-08-27T19:29:19.772Z,5.20
2022-08-27T19:32:07.417Z,9.98
2022-08-27T19:34:54.524Z,6.50
2022-08-27T19:37:46.376Z,8.20
2022-08-27T19:40:37.481Z,8.48
2022-08-27T19:43:26.709Z,7.67
2022-08-27T19:46:16.143Z,7.15
2022-08-27T19:49:03.677Z,6.85
2022-08-27T19:51:50.984Z,7.40
2022-08-27T19:54:52.018Z,10.80
2022-08-27T19:57:27.702Z,7.12
2022-08-27T20:00:20.027Z,12.73
2022-08-27T20:03:07.420Z,11.50
2022-08-27T20:05:55.216Z,8.33
2022-08-27T20:08:43.056Z,7.72
2022-08-27T20:11:30.282Z,8.75
2022-08-27T20:14:18.788Z,4.92
2022-08-27T20:17:06.629Z,6.90
2022-08-27T20:19:54.847Z,9.45
2022-08-27T20:22:44.233Z,6.80
2022-08-27T20:25:31.681Z,6.35
2022-08-27T20:28:38.850Z,10.85
2022-08-27T20:31:09.019Z,10.08
2022-08-27T20:33:56.721Z,7.75
2022-08-27T20:36:44.230Z,7.25
2022-08-27T20:39:33.708Z,8.93
2022-08-27T20:42:21.478Z,9.70
2022-08-27T20:45:12.152Z,7.62
2022-08-27T20:47:59.122Z,6.60
2022-08-27T20:50:46.392Z,9.43
2022-08-27T20:53:34.023Z,5.95
2022-08-27T20:56:21.973Z,5.28
2022-08-27T20:59:27.129Z,8.90
2022-08-27T21:02:16.471Z,5.08
2022-08-27T21:05:10.088Z,8.85
2022-08-27T21:07:57.665Z,6.50
2022-08-27T21:10:48.182Z,6.47
2022-08-27T21:13:46.402Z,7.00
2022-08-27T21:16:26.311Z,6.90
2022-08-27T21:19:13.528Z,7.58
2022-08-27T21:22:06.049Z,7.53
2022-08-27T21:24:50.270Z,5.70
2022-08-27T21:27:38.384Z,7.70
2022-08-27T21:30:26.471Z,7.37
2022-08-27T21:33:14.289Z,6.37
2022-08-27T21:36:11.273Z,9.03
2022-08-27T21:38:55.433Z,8.70
2022-08-27T21:41:42.803Z,8.95
2022-08-27T21:44:31.277Z,6.60
2022-08-27T21:47:18.622Z,12.28
2022-08-27T21:50:07.394Z,6.17
2022-08-27T21:52:55.207Z,5.62
2022-08-27T21:55:42.676Z,6.25
2022-08-27T21:58:29.870Z,7.80
2022-08-27T22:01:17.526Z,9.05
2022-08-27T22:04:05.624Z,7.28
2022-08-27T22:06:54.797Z,12.60
2022-08-27T22:09:41.326Z,5.85
2022-08-27T22:12:28.545Z,7.10
2022-08-27T22:15:16.106Z,6.05
2022-08-27T22:18:04.028Z,8.88
2022-08-27T22:20:52.416Z,7.20
2022-08-27T22:23:39.743Z,9.50
2022-08-27T22:26:28.804Z,6.95
2022-08-27T22:29:16.475Z,6.42
2022-08-27T22:32:06.115Z,9.33
2022-08-27T22:34:53.493Z,7.45
2022-08-27T22:37:41.876Z,6.40
2022-08-27T22:40:31.040Z,6.67
2022-08-27T22:43:18.245Z,5.72
2022-08-27T22:46:05.778Z,8.08
2022-08-27T22:48:54.225Z,5.90
2022-08-27T22:51:41.897Z,7.87
2022-08-27T22:54:29.166Z,7.50
2022-08-27T22:57:16.361Z,10.70
2022-08-27T23:00:06.928Z,10.35
2022-08-27T23:02:54.800Z,8.10
2022-08-27T23:05:43.528Z,7.58
2022-08-27T23:08:31.771Z,5.65
2022-08-27T23:11:19.040Z,17.57
2022-08-27T23:14:06.399Z,7.53
2022-08-27T23:16:54.371Z,6.35
2022-08-27T23:19:41.934Z,6.50
2022-08-27T23:22:31.000Z,5.95
2022-08-27T23:25:37.265Z,6.65
2022-08-27T23:28:26.091Z,7.37
2022-08-27T23:31:14.318Z,10.28
2022-08-27T23:34:01.629Z,13.08
2022-08-27T23:36:49.145Z,11.30
2022-08-27T23:39:36.733Z,7.92
2022-08-27T23:42:24.503Z,9.40
2022-08-27T23:45:15.348Z,8.10
2022-08-27T23:48:02.632Z,6.50
2022-08-27T23:50:50.472Z,5.20
2022-08-27T23:53:39.145Z,7.42
2022-08-27T23:56:28.110Z,15.43
2022-08-27T23:59:15.249Z,8.63
